AAL2453 KDAL-KMAF
Flight info
| Callsign | AAL2453 |
|---|---|
| Flight time | 0h 56m |
| Altitude | 40000 |
| Route | KKITY5 DOSXX |
| Aircraft | CRJ7/M-SDFGIRWY/S |
Departure
| Time | 2026-04-18 03:41 |
|---|---|
| Airport | Dallas Love Field (KDAL) |
Arrival
| Time | 2026-04-18 04:37 |
|---|---|
| Airport | Midland International Air and Space Port (KMAF) |
| Time | Latitude | Longitude | Altitude | Speed | Heading |
|---|---|---|---|---|---|
| 2026-04-18 03:12 | 32.84651 | -96.85184 | 483 ft | 0 kts | 181° |
| 2026-04-18 03:28 | 32.84663 | -96.85184 | 459 ft | 2 kts | 182° |
| 2026-04-18 03:29 | 32.84679 | -96.85183 | 489 ft | 2 kts | 185° |
| 2026-04-18 03:29 | 32.84695 | -96.85181 | 483 ft | 2 kts | 189° |
| 2026-04-18 03:29 | 32.84712 | -96.85177 | 484 ft | 2 kts | 195° |
| 2026-04-18 03:29 | 32.84727 | -96.85170 | 486 ft | 2 kts | 207° |
| 2026-04-18 03:30 | 32.84740 | -96.85159 | 484 ft | 2 kts | 233° |
| 2026-04-18 03:30 | 32.84745 | -96.85142 | 486 ft | 1 kts | 263° |
| 2026-04-18 03:30 | 32.84746 | -96.85138 | 487 ft | 0 kts | 266° |
| 2026-04-18 03:36 | 32.84745 | -96.85149 | 482 ft | 7 kts | 268° |
| 2026-04-18 03:37 | 32.84746 | -96.85215 | 488 ft | 10 kts | 271° |
| 2026-04-18 03:37 | 32.84759 | -96.85295 | 484 ft | 11 kts | 310° |
| 2026-04-18 03:37 | 32.84833 | -96.85309 | 483 ft | 12 kts | 13° |
| 2026-04-18 03:37 | 32.84927 | -96.85279 | 485 ft | 17 kts | 14° |
| 2026-04-18 03:38 | 32.85045 | -96.85243 | 485 ft | 15 kts | 8° |
| 2026-04-18 03:38 | 32.85138 | -96.85299 | 490 ft | 17 kts | 317° |
| 2026-04-18 03:38 | 32.85235 | -96.85396 | 485 ft | 20 kts | 326° |
| 2026-04-18 03:38 | 32.85344 | -96.85512 | 487 ft | 22 kts | 316° |
| 2026-04-18 03:39 | 32.85466 | -96.85649 | 483 ft | 22 kts | 318° |
| 2026-04-18 03:39 | 32.85534 | -96.85702 | 478 ft | 9 kts | 6° |
| 2026-04-18 03:39 | 32.85598 | -96.85709 | 479 ft | 8 kts | 315° |
| 2026-04-18 03:39 | 32.85649 | -96.85746 | 481 ft | 9 kts | 9° |
| 2026-04-18 03:40 | 32.85691 | -96.85688 | 480 ft | 11 kts | 71° |
| 2026-04-18 03:40 | 32.85669 | -96.85607 | 483 ft | 13 kts | 137° |
| 2026-04-18 03:40 | 32.85408 | -96.85307 | 487 ft | 96 kts | 136° |
| 2026-04-18 03:40 | 32.84755 | -96.84556 | 529 ft | 166 kts | 136° |
| 2026-04-18 03:41 | 32.83808 | -96.83506 | 1051 ft | 206 kts | 138° |
| 2026-04-18 03:41 | 32.82690 | -96.82226 | 1786 ft | 235 kts | 141° |
| 2026-04-18 03:41 | 32.81496 | -96.80787 | 2866 ft | 251 kts | 135° |
| 2026-04-18 03:41 | 32.80750 | -96.78956 | 4723 ft | 245 kts | 118° |
| 2026-04-18 03:42 | 32.79827 | -96.77307 | 5864 ft | 246 kts | 144° |
| 2026-04-18 03:42 | 32.78386 | -96.76114 | 6622 ft | 265 kts | 160° |
| 2026-04-18 03:42 | 32.76563 | -96.75334 | 7386 ft | 287 kts | 167° |
| 2026-04-18 03:42 | 32.74616 | -96.74619 | 8136 ft | 304 kts | 168° |
| 2026-04-18 03:43 | 32.72557 | -96.73912 | 8912 ft | 311 kts | 171° |
| 2026-04-18 03:43 | 32.70390 | -96.73431 | 9443 ft | 326 kts | 177° |
| 2026-04-18 03:43 | 32.68030 | -96.73050 | 9455 ft | 358 kts | 178° |
| 2026-04-18 03:43 | 32.65484 | -96.72701 | 9960 ft | 370 kts | 178° |
| 2026-04-18 03:44 | 32.62921 | -96.72365 | 10867 ft | 371 kts | 179° |
| 2026-04-18 03:44 | 32.60354 | -96.72034 | 11746 ft | 371 kts | 179° |
| 2026-04-18 03:44 | 32.57786 | -96.71698 | 12635 ft | 372 kts | 179° |
| 2026-04-18 03:44 | 32.55207 | -96.71359 | 13480 ft | 373 kts | 179° |
| 2026-04-18 03:45 | 32.52621 | -96.71015 | 14207 ft | 376 kts | 179° |
| 2026-04-18 03:45 | 32.50003 | -96.70662 | 14872 ft | 380 kts | 179° |
| 2026-04-18 03:45 | 32.47375 | -96.70647 | 15518 ft | 376 kts | 193° |
| 2026-04-18 03:45 | 32.44947 | -96.71686 | 16169 ft | 371 kts | 213° |
| 2026-04-18 03:46 | 32.43019 | -96.73680 | 16732 ft | 372 kts | 233° |
| 2026-04-18 03:46 | 32.41819 | -96.76399 | 17347 ft | 376 kts | 252° |
| 2026-04-18 03:46 | 32.41516 | -96.79489 | 17952 ft | 385 kts | 271° |
| 2026-04-18 03:46 | 32.41991 | -96.82631 | 18517 ft | 390 kts | 278° |
| 2026-04-18 03:47 | 32.42569 | -96.85766 | 19083 ft | 393 kts | 281° |
| 2026-04-18 03:47 | 32.43715 | -96.88742 | 19634 ft | 405 kts | 296° |
| 2026-04-18 03:47 | 32.45271 | -96.91487 | 20147 ft | 409 kts | 299° |
| 2026-04-18 03:47 | 32.46925 | -96.94236 | 20678 ft | 411 kts | 300° |
| 2026-04-18 03:48 | 32.48626 | -96.96972 | 21170 ft | 414 kts | 300° |
| 2026-04-18 03:48 | 32.50355 | -96.99706 | 21645 ft | 416 kts | 300° |
| 2026-04-18 03:48 | 32.52061 | -97.02372 | 22095 ft | 418 kts | 301° |
| 2026-04-18 03:48 | 32.53833 | -97.05120 | 22499 ft | 420 kts | 301° |
| 2026-04-18 03:49 | 32.55617 | -97.07874 | 22928 ft | 422 kts | 301° |
| 2026-04-18 03:49 | 32.57416 | -97.10635 | 23347 ft | 424 kts | 301° |
| 2026-04-18 03:49 | 32.59227 | -97.13405 | 23702 ft | 426 kts | 301° |
| 2026-04-18 03:49 | 32.61055 | -97.16186 | 24037 ft | 428 kts | 301° |
| 2026-04-18 03:50 | 32.62892 | -97.18976 | 24350 ft | 430 kts | 301° |
| 2026-04-18 03:50 | 32.64708 | -97.21732 | 24660 ft | 432 kts | 301° |
| 2026-04-18 03:50 | 32.66557 | -97.24548 | 24982 ft | 432 kts | 299° |
| 2026-04-18 03:50 | 32.67953 | -97.27616 | 25284 ft | 418 kts | 283° |
| 2026-04-18 03:51 | 32.68408 | -97.30966 | 25540 ft | 409 kts | 267° |
| 2026-04-18 03:51 | 32.68336 | -97.34330 | 25808 ft | 408 kts | 264° |
| 2026-04-18 03:51 | 32.68162 | -97.37698 | 26077 ft | 409 kts | 263° |
| 2026-04-18 03:51 | 32.67937 | -97.41058 | 26344 ft | 409 kts | 262° |
| 2026-04-18 03:52 | 32.67688 | -97.44432 | 26584 ft | 410 kts | 262° |
| 2026-04-18 03:52 | 32.67427 | -97.47812 | 26827 ft | 411 kts | 262° |
| 2026-04-18 03:52 | 32.67161 | -97.51195 | 27074 ft | 412 kts | 262° |
| 2026-04-18 03:52 | 32.66896 | -97.54581 | 27301 ft | 413 kts | 262° |
| 2026-04-18 03:53 | 32.66630 | -97.57950 | 27520 ft | 414 kts | 262° |
| 2026-04-18 03:53 | 32.66364 | -97.61359 | 27662 ft | 417 kts | 262° |
| 2026-04-18 03:53 | 32.66099 | -97.64803 | 27676 ft | 420 kts | 262° |
| 2026-04-18 03:53 | 32.65834 | -97.68264 | 27698 ft | 421 kts | 262° |
| 2026-04-18 03:54 | 32.65575 | -97.71694 | 27705 ft | 415 kts | 262° |
| 2026-04-18 03:54 | 32.65323 | -97.75086 | 27731 ft | 410 kts | 262° |
| 2026-04-18 03:54 | 32.65079 | -97.78432 | 27776 ft | 405 kts | 262° |
| 2026-04-18 03:54 | 32.64841 | -97.81746 | 27797 ft | 401 kts | 262° |
| 2026-04-18 03:55 | 32.64609 | -97.85033 | 27802 ft | 398 kts | 262° |
| 2026-04-18 03:55 | 32.64380 | -97.88296 | 27803 ft | 396 kts | 262° |
| 2026-04-18 03:55 | 32.64157 | -97.91511 | 27807 ft | 394 kts | 262° |
| 2026-04-18 03:55 | 32.63940 | -97.94677 | 27808 ft | 392 kts | 262° |
| 2026-04-18 03:56 | 32.63722 | -97.97931 | 27822 ft | 390 kts | 262° |
| 2026-04-18 03:56 | 32.63522 | -98.01085 | 27815 ft | 388 kts | 262° |
| 2026-04-18 03:56 | 32.63323 | -98.04320 | 27812 ft | 387 kts | 262° |
| 2026-04-18 03:56 | 32.63134 | -98.07449 | 27810 ft | 385 kts | 262° |
| 2026-04-18 03:57 | 32.62766 | -98.13774 | 27806 ft | 383 kts | 262° |
| 2026-04-18 03:57 | 32.62586 | -98.16924 | 27808 ft | 382 kts | 262° |
| 2026-04-18 03:57 | 32.62407 | -98.20061 | 27803 ft | 381 kts | 262° |
| 2026-04-18 03:58 | 32.62231 | -98.23192 | 27800 ft | 380 kts | 262° |
| 2026-04-18 03:58 | 32.62053 | -98.26319 | 27797 ft | 379 kts | 262° |
| 2026-04-18 03:58 | 32.61882 | -98.29423 | 27801 ft | 379 kts | 262° |
| 2026-04-18 03:58 | 32.61565 | -98.32503 | 27801 ft | 375 kts | 256° |
| 2026-04-18 03:59 | 32.61043 | -98.35524 | 27787 ft | 374 kts | 255° |
| 2026-04-18 03:59 | 32.60532 | -98.38549 | 27787 ft | 373 kts | 256° |
| 2026-04-18 03:59 | 32.60097 | -98.41584 | 27784 ft | 373 kts | 258° |
| 2026-04-18 03:59 | 32.59718 | -98.44626 | 27787 ft | 373 kts | 258° |
| 2026-04-18 04:00 | 32.59329 | -98.47666 | 27792 ft | 372 kts | 258° |
| 2026-04-18 04:00 | 32.58934 | -98.50699 | 27794 ft | 372 kts | 258° |
| 2026-04-18 04:00 | 32.58545 | -98.53724 | 27802 ft | 371 kts | 258° |
| 2026-04-18 04:00 | 32.58150 | -98.56745 | 27806 ft | 371 kts | 258° |
| 2026-04-18 04:01 | 32.57757 | -98.59766 | 27805 ft | 370 kts | 258° |
| 2026-04-18 04:01 | 32.57364 | -98.62776 | 27815 ft | 370 kts | 257° |
| 2026-04-18 04:01 | 32.56972 | -98.65784 | 27778 ft | 369 kts | 258° |
| 2026-04-18 04:01 | 32.56578 | -98.68790 | 27778 ft | 369 kts | 258° |
| 2026-04-18 04:02 | 32.56183 | -98.71786 | 27787 ft | 368 kts | 258° |
| 2026-04-18 04:02 | 32.55790 | -98.74774 | 27782 ft | 368 kts | 258° |
| 2026-04-18 04:02 | 32.55397 | -98.77766 | 27780 ft | 368 kts | 258° |
| 2026-04-18 04:02 | 32.55000 | -98.80761 | 27776 ft | 367 kts | 257° |
| 2026-04-18 04:03 | 32.54648 | -98.83760 | 27774 ft | 369 kts | 263° |
| 2026-04-18 04:03 | 32.54903 | -98.86820 | 27802 ft | 375 kts | 272° |
| 2026-04-18 04:03 | 32.54862 | -98.89844 | 27808 ft | 363 kts | 254° |
| 2026-04-18 04:03 | 32.54110 | -98.92639 | 27823 ft | 361 kts | 249° |
| 2026-04-18 04:04 | 32.53304 | -98.95465 | 27813 ft | 365 kts | 251° |
| 2026-04-18 04:04 | 32.52644 | -98.98389 | 27804 ft | 370 kts | 255° |
| 2026-04-18 04:04 | 32.52174 | -99.01415 | 27806 ft | 376 kts | 258° |
| 2026-04-18 04:04 | 32.51859 | -99.04038 | 27806 ft | 380 kts | 259° |
| 2026-04-18 04:05 | 32.51505 | -99.07154 | 27817 ft | 383 kts | 259° |
| 2026-04-18 04:05 | 32.51132 | -99.10291 | 27811 ft | 386 kts | 258° |
| 2026-04-18 04:05 | 32.50715 | -99.13449 | 27809 ft | 389 kts | 258° |
| 2026-04-18 04:05 | 32.50290 | -99.16630 | 27806 ft | 392 kts | 257° |
| 2026-04-18 04:06 | 32.49860 | -99.19832 | 27807 ft | 395 kts | 258° |
| 2026-04-18 04:06 | 32.49425 | -99.23052 | 27805 ft | 397 kts | 258° |
| 2026-04-18 04:06 | 32.48982 | -99.26287 | 27796 ft | 399 kts | 257° |
| 2026-04-18 04:06 | 32.48538 | -99.29545 | 27796 ft | 401 kts | 258° |
| 2026-04-18 04:07 | 32.48094 | -99.32814 | 27810 ft | 403 kts | 257° |
| 2026-04-18 04:07 | 32.47645 | -99.36100 | 27807 ft | 405 kts | 258° |
| 2026-04-18 04:07 | 32.47195 | -99.39394 | 27822 ft | 406 kts | 257° |
| 2026-04-18 04:07 | 32.46739 | -99.42698 | 27839 ft | 408 kts | 257° |
| 2026-04-18 04:08 | 32.46283 | -99.46013 | 27836 ft | 409 kts | 257° |
| 2026-04-18 04:08 | 32.45827 | -99.49342 | 27849 ft | 410 kts | 257° |
| 2026-04-18 04:08 | 32.45368 | -99.52673 | 27856 ft | 411 kts | 257° |
| 2026-04-18 04:08 | 32.44900 | -99.56014 | 27863 ft | 411 kts | 257° |
| 2026-04-18 04:09 | 32.44439 | -99.59357 | 27869 ft | 412 kts | 257° |
| 2026-04-18 04:09 | 32.43975 | -99.62704 | 27868 ft | 412 kts | 257° |
| 2026-04-18 04:09 | 32.43510 | -99.66059 | 27867 ft | 413 kts | 257° |
| 2026-04-18 04:09 | 32.43038 | -99.69406 | 27865 ft | 413 kts | 257° |
| 2026-04-18 04:10 | 32.42569 | -99.72765 | 27867 ft | 413 kts | 257° |
| 2026-04-18 04:10 | 32.42044 | -99.76103 | 27863 ft | 412 kts | 253° |
| 2026-04-18 04:10 | 32.41185 | -99.79324 | 27828 ft | 410 kts | 249° |
| 2026-04-18 04:10 | 32.40257 | -99.82523 | 27828 ft | 411 kts | 249° |
| 2026-04-18 04:11 | 32.39389 | -99.85700 | 27836 ft | 411 kts | 251° |
| 2026-04-18 04:11 | 32.38590 | -99.88953 | 27833 ft | 412 kts | 252° |
| 2026-04-18 04:11 | 32.37795 | -99.92204 | 27831 ft | 412 kts | 251° |
| 2026-04-18 04:11 | 32.36985 | -99.95451 | 27830 ft | 412 kts | 251° |
| 2026-04-18 04:12 | 32.36178 | -99.98699 | 27824 ft | 412 kts | 251° |
| 2026-04-18 04:12 | 32.35374 | -100.01933 | 27823 ft | 412 kts | 251° |
| 2026-04-18 04:12 | 32.34562 | -100.05184 | 27812 ft | 412 kts | 251° |
| 2026-04-18 04:12 | 32.33752 | -100.08445 | 27589 ft | 414 kts | 251° |
| 2026-04-18 04:13 | 32.32954 | -100.11641 | 26707 ft | 406 kts | 251° |
| 2026-04-18 04:13 | 32.32151 | -100.14844 | 26160 ft | 406 kts | 251° |
| 2026-04-18 04:13 | 32.31354 | -100.18037 | 25813 ft | 404 kts | 251° |
| 2026-04-18 04:13 | 32.30554 | -100.21216 | 25504 ft | 402 kts | 251° |
| 2026-04-18 04:14 | 32.29770 | -100.24369 | 25111 ft | 397 kts | 251° |
| 2026-04-18 04:14 | 32.28984 | -100.27486 | 24644 ft | 394 kts | 251° |
| 2026-04-18 04:14 | 32.28204 | -100.30584 | 24178 ft | 393 kts | 251° |
| 2026-04-18 04:14 | 32.27428 | -100.33670 | 23730 ft | 392 kts | 251° |
| 2026-04-18 04:15 | 32.26653 | -100.36738 | 23281 ft | 391 kts | 251° |
| 2026-04-18 04:15 | 32.25869 | -100.39831 | 22753 ft | 390 kts | 251° |
| 2026-04-18 04:15 | 32.25093 | -100.42906 | 22227 ft | 390 kts | 251° |
| 2026-04-18 04:15 | 32.24318 | -100.45969 | 21716 ft | 390 kts | 252° |
| 2026-04-18 04:16 | 32.23538 | -100.49035 | 21213 ft | 389 kts | 252° |
| 2026-04-18 04:16 | 32.22761 | -100.52098 | 20721 ft | 390 kts | 252° |
| 2026-04-18 04:16 | 32.22004 | -100.55081 | 20260 ft | 390 kts | 253° |
| 2026-04-18 04:16 | 32.21221 | -100.58149 | 19784 ft | 391 kts | 253° |
| 2026-04-18 04:17 | 32.20438 | -100.61207 | 19316 ft | 387 kts | 254° |
| 2026-04-18 04:17 | 32.19669 | -100.64235 | 18852 ft | 383 kts | 254° |
| 2026-04-18 04:17 | 32.18904 | -100.67234 | 18405 ft | 380 kts | 254° |
| 2026-04-18 04:17 | 32.18141 | -100.70213 | 17941 ft | 378 kts | 255° |
| 2026-04-18 04:18 | 32.17394 | -100.73131 | 17409 ft | 362 kts | 255° |
| 2026-04-18 04:18 | 32.16690 | -100.75897 | 16890 ft | 343 kts | 255° |
| 2026-04-18 04:18 | 32.16014 | -100.78537 | 16379 ft | 331 kts | 255° |
| 2026-04-18 04:18 | 32.15355 | -100.81113 | 15871 ft | 325 kts | 254° |
| 2026-04-18 04:19 | 32.14706 | -100.83647 | 15375 ft | 321 kts | 254° |
| 2026-04-18 04:19 | 32.14051 | -100.86183 | 14899 ft | 325 kts | 254° |
| 2026-04-18 04:19 | 32.13394 | -100.88751 | 14421 ft | 328 kts | 255° |
| 2026-04-18 04:19 | 32.12952 | -100.90462 | 14110 ft | 330 kts | 255° |
| 2026-04-18 04:20 | 32.12062 | -100.93941 | 13494 ft | 332 kts | 255° |
| 2026-04-18 04:20 | 32.11614 | -100.95667 | 13147 ft | 330 kts | 255° |
| 2026-04-18 04:20 | 32.10955 | -100.98230 | 12636 ft | 324 kts | 255° |
| 2026-04-18 04:20 | 32.10301 | -101.00760 | 12130 ft | 320 kts | 255° |
| 2026-04-18 04:21 | 32.09657 | -101.03253 | 11628 ft | 316 kts | 255° |
| 2026-04-18 04:21 | 32.09019 | -101.05720 | 11136 ft | 313 kts | 254° |
| 2026-04-18 04:21 | 32.08385 | -101.08167 | 10652 ft | 310 kts | 254° |
| 2026-04-18 04:21 | 32.07761 | -101.10592 | 10184 ft | 308 kts | 254° |
| 2026-04-18 04:22 | 32.07136 | -101.13002 | 9716 ft | 306 kts | 254° |
| 2026-04-18 04:22 | 32.06524 | -101.15366 | 9206 ft | 298 kts | 253° |
| 2026-04-18 04:22 | 32.05923 | -101.17682 | 8694 ft | 292 kts | 253° |
| 2026-04-18 04:22 | 32.05335 | -101.19953 | 8186 ft | 287 kts | 253° |
| 2026-04-18 04:23 | 32.04754 | -101.22181 | 7708 ft | 282 kts | 253° |
| 2026-04-18 04:23 | 32.04187 | -101.24373 | 7226 ft | 277 kts | 252° |
| 2026-04-18 04:23 | 32.03627 | -101.26531 | 6748 ft | 273 kts | 252° |
| 2026-04-18 04:23 | 32.03076 | -101.28668 | 6283 ft | 274 kts | 252° |
| 2026-04-18 04:24 | 32.02532 | -101.30817 | 5806 ft | 274 kts | 252° |
| 2026-04-18 04:24 | 32.02003 | -101.32929 | 5419 ft | 269 kts | 252° |
| 2026-04-18 04:24 | 32.01477 | -101.35031 | 5179 ft | 259 kts | 251° |
| 2026-04-18 04:24 | 32.00959 | -101.37051 | 4832 ft | 257 kts | 249° |
| 2026-04-18 04:25 | 32.00454 | -101.39058 | 4597 ft | 251 kts | 250° |
| 2026-04-18 04:25 | 32.00025 | -101.40982 | 4521 ft | 248 kts | 252° |
| 2026-04-18 04:25 | 31.99632 | -101.42973 | 4677 ft | 248 kts | 255° |
| 2026-04-18 04:25 | 31.99506 | -101.44984 | 5001 ft | 246 kts | 266° |
| 2026-04-18 04:26 | 31.99525 | -101.47033 | 5027 ft | 252 kts | 267° |
| 2026-04-18 04:26 | 31.99470 | -101.49097 | 5078 ft | 256 kts | 258° |
| 2026-04-18 04:26 | 31.98969 | -101.51143 | 5010 ft | 263 kts | 248° |
| 2026-04-18 04:26 | 31.98419 | -101.53190 | 5155 ft | 259 kts | 250° |
| 2026-04-18 04:27 | 31.97866 | -101.55175 | 5219 ft | 252 kts | 248° |
| 2026-04-18 04:27 | 31.97344 | -101.57129 | 5197 ft | 250 kts | 251° |
| 2026-04-18 04:27 | 31.96879 | -101.59082 | 5203 ft | 246 kts | 251° |
| 2026-04-18 04:27 | 31.96414 | -101.61010 | 5177 ft | 245 kts | 251° |
| 2026-04-18 04:28 | 31.95934 | -101.62884 | 5228 ft | 239 kts | 249° |
| 2026-04-18 04:28 | 31.95413 | -101.64714 | 5310 ft | 233 kts | 248° |
| 2026-04-18 04:28 | 31.94847 | -101.66495 | 5346 ft | 231 kts | 246° |
| 2026-04-18 04:28 | 31.94266 | -101.68336 | 5342 ft | 250 kts | 249° |
| 2026-04-18 04:29 | 31.93645 | -101.70327 | 5346 ft | 267 kts | 248° |
| 2026-04-18 04:29 | 31.92962 | -101.72395 | 5537 ft | 274 kts | 247° |
| 2026-04-18 04:29 | 31.92266 | -101.74441 | 5599 ft | 263 kts | 248° |
| 2026-04-18 04:29 | 31.91640 | -101.76434 | 5685 ft | 259 kts | 250° |
| 2026-04-18 04:30 | 31.91040 | -101.78444 | 5706 ft | 261 kts | 250° |
| 2026-04-18 04:30 | 31.90433 | -101.80475 | 5649 ft | 266 kts | 249° |
| 2026-04-18 04:30 | 31.89778 | -101.82525 | 5632 ft | 267 kts | 248° |
| 2026-04-18 04:30 | 31.89172 | -101.84550 | 5711 ft | 259 kts | 251° |
| 2026-04-18 04:31 | 31.88680 | -101.86597 | 5830 ft | 261 kts | 255° |
| 2026-04-18 04:31 | 31.88240 | -101.88675 | 5933 ft | 263 kts | 255° |
| 2026-04-18 04:31 | 31.87805 | -101.90779 | 5980 ft | 266 kts | 255° |
| 2026-04-18 04:31 | 31.87335 | -101.92901 | 6038 ft | 269 kts | 255° |
| 2026-04-18 04:32 | 31.87014 | -101.95033 | 6178 ft | 269 kts | 263° |
| 2026-04-18 04:32 | 31.87020 | -101.97156 | 6175 ft | 250 kts | 272° |
| 2026-04-18 04:32 | 31.87231 | -101.99143 | 5881 ft | 240 kts | 275° |
| 2026-04-18 04:32 | 31.87478 | -102.01058 | 5531 ft | 234 kts | 276° |
| 2026-04-18 04:33 | 31.87802 | -102.02894 | 5180 ft | 220 kts | 281° |
| 2026-04-18 04:33 | 31.88238 | -102.04410 | 5116 ft | 166 kts | 290° |
| 2026-04-18 04:33 | 31.88718 | -102.05521 | 4780 ft | 148 kts | 294° |
| 2026-04-18 04:33 | 31.89185 | -102.06579 | 4472 ft | 141 kts | 292° |
| 2026-04-18 04:34 | 31.89603 | -102.07610 | 4191 ft | 138 kts | 290° |
| 2026-04-18 04:34 | 31.89954 | -102.08629 | 3945 ft | 137 kts | 288° |
| 2026-04-18 04:34 | 31.90304 | -102.09666 | 3813 ft | 132 kts | 289° |
| 2026-04-18 04:34 | 31.90660 | -102.10628 | 3778 ft | 127 kts | 290° |
| 2026-04-18 04:35 | 31.91044 | -102.11593 | 3726 ft | 135 kts | 290° |
| 2026-04-18 04:35 | 31.91427 | -102.12605 | 3758 ft | 135 kts | 287° |
| 2026-04-18 04:35 | 31.91791 | -102.13672 | 3631 ft | 147 kts | 287° |
| 2026-04-18 04:35 | 31.92200 | -102.14778 | 3500 ft | 144 kts | 289° |
| 2026-04-18 04:36 | 31.92609 | -102.15818 | 3381 ft | 133 kts | 291° |
| 2026-04-18 04:36 | 31.92943 | -102.16786 | 3244 ft | 123 kts | 288° |
| 2026-04-18 04:36 | 31.93283 | -102.17693 | 3106 ft | 123 kts | 292° |
| 2026-04-18 04:36 | 31.93640 | -102.18637 | 3003 ft | 121 kts | 292° |
| 2026-04-18 04:37 | 31.93960 | -102.19491 | 2866 ft | 100 kts | 292° |
| 2026-04-18 04:37 | 31.94195 | -102.20115 | 2870 ft | 71 kts | 294° |
| 2026-04-18 04:37 | 31.94316 | -102.20455 | 2863 ft | 16 kts | 285° |
| 2026-04-18 04:37 | 31.94321 | -102.20549 | 2861 ft | 6 kts | 216° |
| 2026-04-18 04:38 | 31.94278 | -102.20570 | 2861 ft | 7 kts | 199° |
| 2026-04-18 04:38 | 31.94234 | -102.20581 | 2862 ft | 5 kts | 174° |
| 2026-04-18 04:38 | 31.94198 | -102.20574 | 2863 ft | 5 kts | 180° |
| 2026-04-18 04:38 | 31.94160 | -102.20574 | 2863 ft | 6 kts | 177° |
| 2026-04-18 04:39 | 31.94116 | -102.20570 | 2863 ft | 5 kts | 175° |
| 2026-04-18 04:39 | 31.94075 | -102.20566 | 2863 ft | 7 kts | 175° |
| 2026-04-18 04:39 | 31.94015 | -102.20560 | 2862 ft | 10 kts | 175° |
| 2026-04-18 04:39 | 31.93940 | -102.20553 | 2862 ft | 11 kts | 175° |
| 2026-04-18 04:40 | 31.93867 | -102.20555 | 2863 ft | 9 kts | 216° |
| 2026-04-18 04:40 | 31.93833 | -102.20611 | 2864 ft | 7 kts | 216° |
| 2026-04-18 04:40 | 31.93811 | -102.20620 | 2865 ft | 8 kts | 193° |
| 2026-04-18 04:40 | 31.93781 | -102.20669 | 2865 ft | 8 kts | 265° |
| 2026-04-18 04:41 | 31.93781 | -102.20692 | 2865 ft | 0 kts | 272° |